sensor_id;sensor_type;location;lat;lon;timestamp;temperature;humidity
42965;DHT22;28604;51.204;22.552;2022-10-16T00:01:38;13.60;81.00
42965;DHT22;28604;51.204;22.552;2022-10-16T00:04:04;13.60;81.10
42965;DHT22;28604;51.204;22.552;2022-10-16T00:06:30;13.50;81.60
42965;DHT22;28604;51.204;22.552;2022-10-16T00:08:57;13.50;82.00
42965;DHT22;28604;51.204;22.552;2022-10-16T00:11:26;13.50;81.60
42965;DHT22;28604;51.204;22.552;2022-10-16T00:13:58;13.50;81.80
42965;DHT22;28604;51.204;22.552;2022-10-16T00:16:25;13.40;81.50
42965;DHT22;28604;51.204;22.552;2022-10-16T00:18:51;13.40;82.50
42965;DHT22;28604;51.204;22.552;2022-10-16T00:21:21;13.40;82.30
42965;DHT22;28604;51.204;22.552;2022-10-16T00:23:53;13.40;82.00
42965;DHT22;28604;51.204;22.552;2022-10-16T00:26:20;13.40;81.50
42965;DHT22;28604;51.204;22.552;2022-10-16T00:28:47;13.30;81.10
42965;DHT22;28604;51.204;22.552;2022-10-16T00:31:14;13.30;82.40
42965;DHT22;28604;51.204;22.552;2022-10-16T00:33:41;13.30;81.30
42965;DHT22;28604;51.204;22.552;2022-10-16T00:36:10;13.30;81.90
42965;DHT22;28604;51.204;22.552;2022-10-16T00:38:36;13.20;82.40
42965;DHT22;28604;51.204;22.552;2022-10-16T00:41:05;13.10;80.70
42965;DHT22;28604;51.204;22.552;2022-10-16T00:43:36;13.10;81.50
42965;DHT22;28604;51.204;22.552;2022-10-16T00:46:07;13.00;82.90
42965;DHT22;28604;51.204;22.552;2022-10-16T00:48:36;13.00;82.40
42965;DHT22;28604;51.204;22.552;2022-10-16T00:51:02;13.00;82.70
42965;DHT22;28604;51.204;22.552;2022-10-16T00:53:28;12.90;83.00
42965;DHT22;28604;51.204;22.552;2022-10-16T00:55:54;12.90;83.20
42965;DHT22;28604;51.204;22.552;2022-10-16T00:58:21;12.90;83.70
42965;DHT22;28604;51.204;22.552;2022-10-16T01:00:46;12.90;83.00
42965;DHT22;28604;51.204;22.552;2022-10-16T01:08:44;12.80;82.70
42965;DHT22;28604;51.204;22.552;2022-10-16T01:11:33;12.80;83.20
42965;DHT22;28604;51.204;22.552;2022-10-16T01:14:06;12.70;84.10
42965;DHT22;28604;51.204;22.552;2022-10-16T01:16:43;12.70;83.50
42965;DHT22;28604;51.204;22.552;2022-10-16T01:21:44;12.60;83.50
42965;DHT22;28604;51.204;22.552;2022-10-16T01:24:31;12.60;83.60
42965;DHT22;28604;51.204;22.552;2022-10-16T01:27:09;12.60;82.60
42965;DHT22;28604;51.204;22.552;2022-10-16T01:29:48;12.60;83.70
42965;DHT22;28604;51.204;22.552;2022-10-16T01:32:41;12.60;83.30
42965;DHT22;28604;51.204;22.552;2022-10-16T01:35:27;12.40;85.10
42965;DHT22;28604;51.204;22.552;2022-10-16T01:40:39;12.50;84.60
42965;DHT22;28604;51.204;22.552;2022-10-16T01:43:08;12.40;84.70
42965;DHT22;28604;51.204;22.552;2022-10-16T01:45:36;12.50;84.70
42965;DHT22;28604;51.204;22.552;2022-10-16T01:48:04;12.40;84.70
42965;DHT22;28604;51.204;22.552;2022-10-16T01:50:34;12.50;84.80
42965;DHT22;28604;51.204;22.552;2022-10-16T01:53:02;12.50;84.40
42965;DHT22;28604;51.204;22.552;2022-10-16T01:55:32;12.30;85.10
42965;DHT22;28604;51.204;22.552;2022-10-16T01:58:01;12.40;85.10
42965;DHT22;28604;51.204;22.552;2022-10-16T02:00:29;12.40;84.40
42965;DHT22;28604;51.204;22.552;2022-10-16T02:02:57;12.30;85.40
42965;DHT22;28604;51.204;22.552;2022-10-16T02:05:46;12.40;84.80
42965;DHT22;28604;51.204;22.552;2022-10-16T02:08:13;12.30;85.00
42965;DHT22;28604;51.204;22.552;2022-10-16T02:10:39;12.30;85.60
42965;DHT22;28604;51.204;22.552;2022-10-16T02:13:06;12.30;85.20
42965;DHT22;28604;51.204;22.552;2022-10-16T02:15:35;12.30;84.90
42965;DHT22;28604;51.204;22.552;2022-10-16T02:18:05;12.30;85.20
42965;DHT22;28604;51.204;22.552;2022-10-16T02:20:53;12.30;85.60
42965;DHT22;28604;51.204;22.552;2022-10-16T02:26:29;12.30;85.80
42965;DHT22;28604;51.204;22.552;2022-10-16T02:29:01;12.30;85.80
42965;DHT22;28604;51.204;22.552;2022-10-16T02:31:32;12.20;85.80
42965;DHT22;28604;51.204;22.552;2022-10-16T02:34:02;12.30;85.10
42965;DHT22;28604;51.204;22.552;2022-10-16T02:36:31;12.20;85.40
42965;DHT22;28604;51.204;22.552;2022-10-16T02:38:58;12.20;85.70
42965;DHT22;28604;51.204;22.552;2022-10-16T02:41:27;12.20;86.30
42965;DHT22;28604;51.204;22.552;2022-10-16T02:43:53;12.20;86.10
42965;DHT22;28604;51.204;22.552;2022-10-16T02:46:20;12.10;86.00
42965;DHT22;28604;51.204;22.552;2022-10-16T02:48:47;12.10;85.40
42965;DHT22;28604;51.204;22.552;2022-10-16T02:51:13;12.10;86.40
42965;DHT22;28604;51.204;22.552;2022-10-16T02:53:38;12.10;85.90
42965;DHT22;28604;51.204;22.552;2022-10-16T02:56:04;12.10;86.70
42965;DHT22;28604;51.204;22.552;2022-10-16T02:58:30;12.10;86.40
42965;DHT22;28604;51.204;22.552;2022-10-16T03:00:56;12.00;87.00
42965;DHT22;28604;51.204;22.552;2022-10-16T03:03:22;12.10;86.20
42965;DHT22;28604;51.204;22.552;2022-10-16T03:05:48;12.00;86.50
42965;DHT22;28604;51.204;22.552;2022-10-16T03:08:14;12.10;86.70
42965;DHT22;28604;51.204;22.552;2022-10-16T03:10:40;12.00;86.80
42965;DHT22;28604;51.204;22.552;2022-10-16T03:13:06;12.00;86.40
42965;DHT22;28604;51.204;22.552;2022-10-16T03:15:32;11.90;86.90
42965;DHT22;28604;51.204;22.552;2022-10-16T03:17:58;12.00;86.40
42965;DHT22;28604;51.204;22.552;2022-10-16T03:20:25;12.00;87.40
42965;DHT22;28604;51.204;22.552;2022-10-16T03:22:51;11.90;87.20
42965;DHT22;28604;51.204;22.552;2022-10-16T03:25:17;12.00;86.80
42965;DHT22;28604;51.204;22.552;2022-10-16T03:27:43;11.90;87.00
42965;DHT22;28604;51.204;22.552;2022-10-16T03:30:09;11.90;87.20
42965;DHT22;28604;51.204;22.552;2022-10-16T03:32:35;12.00;87.30
42965;DHT22;28604;51.204;22.552;2022-10-16T03:35:01;12.00;86.70
42965;DHT22;28604;51.204;22.552;2022-10-16T03:37:27;12.00;86.90
42965;DHT22;28604;51.204;22.552;2022-10-16T03:39:53;11.90;87.60
42965;DHT22;28604;51.204;22.552;2022-10-16T03:42:19;11.90;87.10
42965;DHT22;28604;51.204;22.552;2022-10-16T03:44:45;11.90;87.00
42965;DHT22;28604;51.204;22.552;2022-10-16T03:47:11;11.90;87.10
42965;DHT22;28604;51.204;22.552;2022-10-16T03:49:37;11.90;86.80
42965;DHT22;28604;51.204;22.552;2022-10-16T03:52:02;12.00;87.10
42965;DHT22;28604;51.204;22.552;2022-10-16T03:54:28;12.00;87.00
42965;DHT22;28604;51.204;22.552;2022-10-16T03:56:54;11.90;85.60
42965;DHT22;28604;51.204;22.552;2022-10-16T03:59:20;11.90;87.20
42965;DHT22;28604;51.204;22.552;2022-10-16T04:01:46;11.90;87.00
42965;DHT22;28604;51.204;22.552;2022-10-16T04:04:12;12.00;87.30
42965;DHT22;28604;51.204;22.552;2022-10-16T04:06:38;11.90;87.70
42965;DHT22;28604;51.204;22.552;2022-10-16T04:09:04;11.90;87.80
42965;DHT22;28604;51.204;22.552;2022-10-16T04:11:30;11.90;87.80
42965;DHT22;28604;51.204;22.552;2022-10-16T04:13:56;11.90;87.80
42965;DHT22;28604;51.204;22.552;2022-10-16T04:16:21;11.90;87.60
42965;DHT22;28604;51.204;22.552;2022-10-16T04:18:48;11.90;87.70
42965;DHT22;28604;51.204;22.552;2022-10-16T04:21:13;11.90;88.30
42965;DHT22;28604;51.204;22.552;2022-10-16T04:23:39;11.80;88.40
42965;DHT22;28604;51.204;22.552;2022-10-16T04:26:05;11.90;87.40
42965;DHT22;28604;51.204;22.552;2022-10-16T04:28:31;11.80;86.90
42965;DHT22;28604;51.204;22.552;2022-10-16T04:30:57;11.90;87.80
42965;DHT22;28604;51.204;22.552;2022-10-16T04:33:23;11.90;87.40
42965;DHT22;28604;51.204;22.552;2022-10-16T04:35:56;11.90;87.10
42965;DHT22;28604;51.204;22.552;2022-10-16T04:38:22;11.90;87.70
42965;DHT22;28604;51.204;22.552;2022-10-16T04:40:48;11.80;87.90
42965;DHT22;28604;51.204;22.552;2022-10-16T04:43:14;11.90;87.70
42965;DHT22;28604;51.204;22.552;2022-10-16T04:45:40;11.90;87.60
42965;DHT22;28604;51.204;22.552;2022-10-16T04:48:06;11.90;87.10
42965;DHT22;28604;51.204;22.552;2022-10-16T04:50:32;11.90;87.30
42965;DHT22;28604;51.204;22.552;2022-10-16T04:53:05;11.90;87.00
42965;DHT22;28604;51.204;22.552;2022-10-16T04:55:32;11.90;88.00
42965;DHT22;28604;51.204;22.552;2022-10-16T04:57:58;11.90;87.80
42965;DHT22;28604;51.204;22.552;2022-10-16T05:00:23;12.00;87.90
42965;DHT22;28604;51.204;22.552;2022-10-16T05:02:50;12.00;87.20
42965;DHT22;28604;51.204;22.552;2022-10-16T05:05:16;11.90;88.20
42965;DHT22;28604;51.204;22.552;2022-10-16T05:07:45;12.10;87.90
42965;DHT22;28604;51.204;22.552;2022-10-16T05:10:11;12.00;87.90
42965;DHT22;28604;51.204;22.552;2022-10-16T05:12:37;12.10;87.60
42965;DHT22;28604;51.204;22.552;2022-10-16T05:15:03;12.10;88.00
42965;DHT22;28604;51.204;22.552;2022-10-16T05:17:29;12.20;87.50
42965;DHT22;28604;51.204;22.552;2022-10-16T05:19:55;12.20;87.80
42965;DHT22;28604;51.204;22.552;2022-10-16T05:22:21;12.20;87.40
42965;DHT22;28604;51.204;22.552;2022-10-16T05:24:47;12.30;87.50
42965;DHT22;28604;51.204;22.552;2022-10-16T05:27:13;12.30;86.60
42965;DHT22;28604;51.204;22.552;2022-10-16T05:29:45;12.40;87.50
42965;DHT22;28604;51.204;22.552;2022-10-16T05:32:13;12.40;87.30
42965;DHT22;28604;51.204;22.552;2022-10-16T05:34:39;12.40;87.50
42965;DHT22;28604;51.204;22.552;2022-10-16T05:37:05;12.50;87.50
42965;DHT22;28604;51.204;22.552;2022-10-16T05:39:31;12.50;87.40
42965;DHT22;28604;51.204;22.552;2022-10-16T05:41:57;12.60;87.00
42965;DHT22;28604;51.204;22.552;2022-10-16T05:44:23;12.60;87.00
42965;DHT22;28604;51.204;22.552;2022-10-16T05:46:49;12.60;86.90
42965;DHT22;28604;51.204;22.552;2022-10-16T05:49:15;12.60;86.70
42965;DHT22;28604;51.204;22.552;2022-10-16T05:51:41;12.60;86.80
42965;DHT22;28604;51.204;22.552;2022-10-16T05:54:07;12.70;87.00
42965;DHT22;28604;51.204;22.552;2022-10-16T05:56:33;12.70;87.10
42965;DHT22;28604;51.204;22.552;2022-10-16T05:58:59;12.70;87.10
42965;DHT22;28604;51.204;22.552;2022-10-16T06:01:25;12.70;87.20
42965;DHT22;28604;51.204;22.552;2022-10-16T06:03:52;12.70;86.70
42965;DHT22;28604;51.204;22.552;2022-10-16T06:06:20;12.70;86.80
42965;DHT22;28604;51.204;22.552;2022-10-16T06:08:48;12.80;86.50
42965;DHT22;28604;51.204;22.552;2022-10-16T06:11:17;12.80;86.20
42965;DHT22;28604;51.204;22.552;2022-10-16T06:13:44;12.70;86.80
42965;DHT22;28604;51.204;22.552;2022-10-16T06:16:37;12.80;87.80
42965;DHT22;28604;51.204;22.552;2022-10-16T06:19:03;12.80;88.20
42965;DHT22;28604;51.204;22.552;2022-10-16T06:21:32;12.80;88.00
42965;DHT22;28604;51.204;22.552;2022-10-16T06:23:58;12.80;89.20
42965;DHT22;28604;51.204;22.552;2022-10-16T06:26:29;12.80;88.80
42965;DHT22;28604;51.204;22.552;2022-10-16T06:28:56;12.80;87.60
42965;DHT22;28604;51.204;22.552;2022-10-16T06:31:22;12.80;88.60
42965;DHT22;28604;51.204;22.552;2022-10-16T06:33:51;12.80;89.40
42965;DHT22;28604;51.204;22.552;2022-10-16T06:36:17;12.80;89.20
42965;DHT22;28604;51.204;22.552;2022-10-16T06:38:44;12.90;88.60
42965;DHT22;28604;51.204;22.552;2022-10-16T06:41:16;12.90;89.00
42965;DHT22;28604;51.204;22.552;2022-10-16T06:43:42;12.80;88.70
42965;DHT22;28604;51.204;22.552;2022-10-16T06:46:21;12.90;88.50
42965;DHT22;28604;51.204;22.552;2022-10-16T06:48:47;12.90;88.80
42965;DHT22;28604;51.204;22.552;2022-10-16T06:51:19;12.90;89.30
42965;DHT22;28604;51.204;22.552;2022-10-16T06:53:47;12.90;88.80
42965;DHT22;28604;51.204;22.552;2022-10-16T06:56:23;13.00;88.20
42965;DHT22;28604;51.204;22.552;2022-10-16T06:58:49;13.00;89.30
42965;DHT22;28604;51.204;22.552;2022-10-16T07:01:17;13.00;89.20
42965;DHT22;28604;51.204;22.552;2022-10-16T07:03:45;13.20;89.80
42965;DHT22;28604;51.204;22.552;2022-10-16T07:06:13;13.40;89.50
42965;DHT22;28604;51.204;22.552;2022-10-16T07:08:41;13.70;89.60
42965;DHT22;28604;51.204;22.552;2022-10-16T07:11:10;14.00;88.10
42965;DHT22;28604;51.204;22.552;2022-10-16T07:13:36;14.40;87.90
42965;DHT22;28604;51.204;22.552;2022-10-16T07:16:07;14.60;85.80
42965;DHT22;28604;51.204;22.552;2022-10-16T07:18:33;14.90;85.30
42965;DHT22;28604;51.204;22.552;2022-10-16T07:23:30;15.30;83.50
42965;DHT22;28604;51.204;22.552;2022-10-16T07:25:56;15.30;82.70
42965;DHT22;28604;51.204;22.552;2022-10-16T07:28:22;15.40;82.50
42965;DHT22;28604;51.204;22.552;2022-10-16T07:30:48;15.40;82.80
42965;DHT22;28604;51.204;22.552;2022-10-16T07:33:14;15.40;81.60
42965;DHT22;28604;51.204;22.552;2022-10-16T07:35:53;15.40;81.60
42965;DHT22;28604;51.204;22.552;2022-10-16T07:38:20;15.40;81.30
42965;DHT22;28604;51.204;22.552;2022-10-16T07:40:47;15.40;81.30
42965;DHT22;28604;51.204;22.552;2022-10-16T07:43:13;15.60;81.50
42965;DHT22;28604;51.204;22.552;2022-10-16T07:45:49;15.60;81.20
42965;DHT22;28604;51.204;22.552;2022-10-16T07:48:16;15.90;80.90
42965;DHT22;28604;51.204;22.552;2022-10-16T07:50:43;16.00;80.90
42965;DHT22;28604;51.204;22.552;2022-10-16T07:53:10;16.20;79.70
42965;DHT22;28604;51.204;22.552;2022-10-16T07:55:36;16.60;80.00
42965;DHT22;28604;51.204;22.552;2022-10-16T07:58:02;17.20;78.90
42965;DHT22;28604;51.204;22.552;2022-10-16T08:00:28;17.70;77.10
42965;DHT22;28604;51.204;22.552;2022-10-16T08:02:54;18.20;75.90
42965;DHT22;28604;51.204;22.552;2022-10-16T08:05:20;18.80;75.30
42965;DHT22;28604;51.204;22.552;2022-10-16T08:07:49;19.30;73.60
42965;DHT22;28604;51.204;22.552;2022-10-16T08:10:20;19.70;73.20
42965;DHT22;28604;51.204;22.552;2022-10-16T08:12:46;20.00;71.70
42965;DHT22;28604;51.204;22.552;2022-10-16T08:15:12;20.20;70.90
42965;DHT22;28604;51.204;22.552;2022-10-16T08:17:38;20.50;69.10
42965;DHT22;28604;51.204;22.552;2022-10-16T08:20:05;20.70;67.00
42965;DHT22;28604;51.204;22.552;2022-10-16T08:22:31;21.10;67.60
42965;DHT22;28604;51.204;22.552;2022-10-16T08:24:57;21.50;67.40
42965;DHT22;28604;51.204;22.552;2022-10-16T08:27:23;21.60;65.40
42965;DHT22;28604;51.204;22.552;2022-10-16T08:29:49;21.90;65.20
42965;DHT22;28604;51.204;22.552;2022-10-16T08:32:15;21.90;64.10
42965;DHT22;28604;51.204;22.552;2022-10-16T08:34:42;22.30;65.40
42965;DHT22;28604;51.204;22.552;2022-10-16T08:37:07;22.80;64.90
42965;DHT22;28604;51.204;22.552;2022-10-16T08:39:37;23.00;62.00
42965;DHT22;28604;51.204;22.552;2022-10-16T08:45:08;23.50;62.10
42965;DHT22;28604;51.204;22.552;2022-10-16T08:50:39;23.40;61.00
42965;DHT22;28604;51.204;22.552;2022-10-16T08:53:06;23.80;60.50
42965;DHT22;28604;51.204;22.552;2022-10-16T08:55:50;24.20;62.20
42965;DHT22;28604;51.204;22.552;2022-10-16T09:00:48;24.40;60.20
42965;DHT22;28604;51.204;22.552;2022-10-16T09:06:10;24.80;58.20
42965;DHT22;28604;51.204;22.552;2022-10-16T09:20:10;24.20;59.10
42965;DHT22;28604;51.204;22.552;2022-10-16T09:22:39;24.00;59.30
42965;DHT22;28604;51.204;22.552;2022-10-16T09:25:12;23.40;59.50
42965;DHT22;28604;51.204;22.552;2022-10-16T09:27:38;23.10;60.40
42965;DHT22;28604;51.204;22.552;2022-10-16T09:30:12;22.80;61.00
42965;DHT22;28604;51.204;22.552;2022-10-16T09:32:39;22.70;61.20
42965;DHT22;28604;51.204;22.552;2022-10-16T09:35:13;22.30;62.20
42965;DHT22;28604;51.204;22.552;2022-10-16T09:37:41;22.10;62.30
42965;DHT22;28604;51.204;22.552;2022-10-16T09:40:34;21.90;62.70
42965;DHT22;28604;51.204;22.552;2022-10-16T09:45:32;21.50;63.70
42965;DHT22;28604;51.204;22.552;2022-10-16T09:48:08;21.40;64.20
42965;DHT22;28604;51.204;22.552;2022-10-16T09:50:35;21.30;64.30
42965;DHT22;28604;51.204;22.552;2022-10-16T09:53:05;21.20;64.20
42965;DHT22;28604;51.204;22.552;2022-10-16T09:55:31;21.10;64.70
42965;DHT22;28604;51.204;22.552;2022-10-16T09:57:57;21.00;64.90
42965;DHT22;28604;51.204;22.552;2022-10-16T10:00:24;20.90;64.90
42965;DHT22;28604;51.204;22.552;2022-10-16T10:02:51;20.80;65.20
42965;DHT22;28604;51.204;22.552;2022-10-16T10:05:20;20.80;65.30
42965;DHT22;28604;51.204;22.552;2022-10-16T10:08:00;20.60;65.40
42965;DHT22;28604;51.204;22.552;2022-10-16T10:10:32;20.60;66.30
42965;DHT22;28604;51.204;22.552;2022-10-16T10:12:58;20.70;66.10
42965;DHT22;28604;51.204;22.552;2022-10-16T10:15:26;20.40;66.30
42965;DHT22;28604;51.204;22.552;2022-10-16T10:17:55;20.40;66.50
42965;DHT22;28604;51.204;22.552;2022-10-16T10:20:29;20.40;66.10
42965;DHT22;28604;51.204;22.552;2022-10-16T10:23:00;20.40;66.10
42965;DHT22;28604;51.204;22.552;2022-10-16T10:28:27;20.10;66.90
42965;DHT22;28604;51.204;22.552;2022-10-16T10:31:07;20.10;67.00
42965;DHT22;28604;51.204;22.552;2022-10-16T10:33:52;20.10;67.50
42965;DHT22;28604;51.204;22.552;2022-10-16T10:36:37;20.00;67.50
42965;DHT22;28604;51.204;22.552;2022-10-16T10:39:35;20.00;68.60
42965;DHT22;28604;51.204;22.552;2022-10-16T10:53:25;19.80;67.50
42965;DHT22;28604;51.204;22.552;2022-10-16T11:04:01;20.20;67.70
42965;DHT22;28604;51.204;22.552;2022-10-16T11:06:34;20.20;67.40
42965;DHT22;28604;51.204;22.552;2022-10-16T11:09:28;20.30;67.40
42965;DHT22;28604;51.204;22.552;2022-10-16T11:14:55;20.20;67.40
42965;DHT22;28604;51.204;22.552;2022-10-16T11:17:27;20.30;67.50
42965;DHT22;28604;51.204;22.552;2022-10-16T11:20:05;20.20;66.80
42965;DHT22;28604;51.204;22.552;2022-10-16T11:22:50;20.20;67.10
42965;DHT22;28604;51.204;22.552;2022-10-16T11:25:24;20.20;67.80
42965;DHT22;28604;51.204;22.552;2022-10-16T11:30:28;20.20;67.50
42965;DHT22;28604;51.204;22.552;2022-10-16T11:38:21;20.20;67.80
42965;DHT22;28604;51.204;22.552;2022-10-16T11:40:53;20.20;67.90
42965;DHT22;28604;51.204;22.552;2022-10-16T11:43:35;20.20;68.00
42965;DHT22;28604;51.204;22.552;2022-10-16T11:46:18;20.20;67.70
42965;DHT22;28604;51.204;22.552;2022-10-16T11:49:07;20.20;67.90
42965;DHT22;28604;51.204;22.552;2022-10-16T11:54:38;20.00;68.10
42965;DHT22;28604;51.204;22.552;2022-10-16T11:57:27;20.10;68.40
42965;DHT22;28604;51.204;22.552;2022-10-16T12:00:17;20.10;68.30
42965;DHT22;28604;51.204;22.552;2022-10-16T12:06:34;20.10;68.60
42965;DHT22;28604;51.204;22.552;2022-10-16T12:08:38;20.00;68.70
42965;DHT22;28604;51.204;22.552;2022-10-16T12:13:49;20.00;69.10
42965;DHT22;28604;51.204;22.552;2022-10-16T12:18:46;20.00;69.20
42965;DHT22;28604;51.204;22.552;2022-10-16T12:21:14;20.00;69.40
42965;DHT22;28604;51.204;22.552;2022-10-16T12:23:58;20.00;69.40
42965;DHT22;28604;51.204;22.552;2022-10-16T12:26:29;20.00;69.60
42965;DHT22;28604;51.204;22.552;2022-10-16T12:29:35;20.10;69.70
42965;DHT22;28604;51.204;22.552;2022-10-16T12:32:04;20.00;69.60
42965;DHT22;28604;51.204;22.552;2022-10-16T12:34:38;19.90;69.90
42965;DHT22;28604;51.204;22.552;2022-10-16T12:37:21;20.00;70.20
42965;DHT22;28604;51.204;22.552;2022-10-16T12:39:49;20.10;69.70
42965;DHT22;28604;51.204;22.552;2022-10-16T12:44:54;20.30;69.60
42965;DHT22;28604;51.204;22.552;2022-10-16T12:49:57;20.60;69.20
42965;DHT22;28604;51.204;22.552;2022-10-16T12:52:36;20.70;69.10
42965;DHT22;28604;51.204;22.552;2022-10-16T12:55:04;20.60;68.50
42965;DHT22;28604;51.204;22.552;2022-10-16T13:06:05;21.10;68.30
42965;DHT22;28604;51.204;22.552;2022-10-16T13:17:25;21.30;67.30
42965;DHT22;28604;51.204;22.552;2022-10-16T13:22:33;21.30;66.90
42965;DHT22;28604;51.204;22.552;2022-10-16T13:25:20;21.40;67.10
42965;DHT22;28604;51.204;22.552;2022-10-16T13:27:55;21.50;66.80
42965;DHT22;28604;51.204;22.552;2022-10-16T13:30:28;21.60;66.80
42965;DHT22;28604;51.204;22.552;2022-10-16T13:35:32;21.40;66.90
42965;DHT22;28604;51.204;22.552;2022-10-16T13:38:20;21.50;67.10
42965;DHT22;28604;51.204;22.552;2022-10-16T13:43:22;21.50;67.00
42965;DHT22;28604;51.204;22.552;2022-10-16T13:46:00;21.60;66.90
42965;DHT22;28604;51.204;22.552;2022-10-16T13:48:28;21.60;67.20
42965;DHT22;28604;51.204;22.552;2022-10-16T13:51:19;21.40;67.40
42965;DHT22;28604;51.204;22.552;2022-10-16T13:53:45;21.30;67.10
42965;DHT22;28604;51.204;22.552;2022-10-16T13:56:14;21.20;67.10
42965;DHT22;28604;51.204;22.552;2022-10-16T13:58:40;21.10;67.70
42965;DHT22;28604;51.204;22.552;2022-10-16T14:03:42;20.90;68.50
42965;DHT22;28604;51.204;22.552;2022-10-16T14:06:20;21.00;68.10
42965;DHT22;28604;51.204;22.552;2022-10-16T14:09:02;21.10;67.80
42965;DHT22;28604;51.204;22.552;2022-10-16T14:11:31;21.20;67.90
42965;DHT22;28604;51.204;22.552;2022-10-16T14:13:57;21.20;67.70
42965;DHT22;28604;51.204;22.552;2022-10-16T14:16:26;21.20;67.50
42965;DHT22;28604;51.204;22.552;2022-10-16T14:19:00;21.20;67.40
42965;DHT22;28604;51.204;22.552;2022-10-16T14:21:27;21.20;68.30
42965;DHT22;28604;51.204;22.552;2022-10-16T14:23:54;21.20;67.60
42965;DHT22;28604;51.204;22.552;2022-10-16T14:26:27;21.10;67.50
42965;DHT22;28604;51.204;22.552;2022-10-16T14:29:14;21.20;68.00
42965;DHT22;28604;51.204;22.552;2022-10-16T14:31:41;21.10;67.90
42965;DHT22;28604;51.204;22.552;2022-10-16T14:34:30;21.20;68.00
42965;DHT22;28604;51.204;22.552;2022-10-16T14:37:00;21.10;67.90
42965;DHT22;28604;51.204;22.552;2022-10-16T14:39:28;21.10;68.30
42965;DHT22;28604;51.204;22.552;2022-10-16T14:41:56;21.00;68.30
42965;DHT22;28604;51.204;22.552;2022-10-16T14:44:28;21.00;68.40
42965;DHT22;28604;51.204;22.552;2022-10-16T14:46:55;21.00;68.50
42965;DHT22;28604;51.204;22.552;2022-10-16T14:49:22;21.00;68.40
42965;DHT22;28604;51.204;22.552;2022-10-16T14:51:49;21.00;68.50
42965;DHT22;28604;51.204;22.552;2022-10-16T14:54:17;20.90;68.60
42965;DHT22;28604;51.204;22.552;2022-10-16T14:59:27;20.80;68.80
42965;DHT22;28604;51.204;22.552;2022-10-16T15:01:54;20.90;69.00
42965;DHT22;28604;51.204;22.552;2022-10-16T15:04:20;20.70;69.10
42965;DHT22;28604;51.204;22.552;2022-10-16T15:06:46;20.70;69.40
42965;DHT22;28604;51.204;22.552;2022-10-16T15:09:12;20.60;69.50
42965;DHT22;28604;51.204;22.552;2022-10-16T15:11:38;20.60;69.60
42965;DHT22;28604;51.204;22.552;2022-10-16T15:14:04;20.50;69.80
42965;DHT22;28604;51.204;22.552;2022-10-16T15:16:31;20.30;70.40
42965;DHT22;28604;51.204;22.552;2022-10-16T15:18:57;20.40;70.10
42965;DHT22;28604;51.204;22.552;2022-10-16T15:21:32;20.40;69.90
42965;DHT22;28604;51.204;22.552;2022-10-16T15:23:59;20.40;69.90
42965;DHT22;28604;51.204;22.552;2022-10-16T15:26:26;20.30;70.00
42965;DHT22;28604;51.204;22.552;2022-10-16T15:28:52;20.20;70.10
42965;DHT22;28604;51.204;22.552;2022-10-16T15:31:19;20.20;70.30
42965;DHT22;28604;51.204;22.552;2022-10-16T15:33:45;20.20;70.20
42965;DHT22;28604;51.204;22.552;2022-10-16T15:36:27;20.10;70.30
42965;DHT22;28604;51.204;22.552;2022-10-16T15:38:53;20.00;70.70
42965;DHT22;28604;51.204;22.552;2022-10-16T15:41:20;19.90;70.60
42965;DHT22;28604;51.204;22.552;2022-10-16T15:43:48;19.90;70.60
42965;DHT22;28604;51.204;22.552;2022-10-16T15:46:17;19.90;70.70
42965;DHT22;28604;51.204;22.552;2022-10-16T15:48:43;19.80;70.90
42965;DHT22;28604;51.204;22.552;2022-10-16T15:51:09;19.80;71.40
42965;DHT22;28604;51.204;22.552;2022-10-16T15:53:35;19.70;70.90
42965;DHT22;28604;51.204;22.552;2022-10-16T15:56:03;19.70;71.30
42965;DHT22;28604;51.204;22.552;2022-10-16T15:58:30;19.70;71.60
42965;DHT22;28604;51.204;22.552;2022-10-16T16:00:57;19.50;71.90
42965;DHT22;28604;51.204;22.552;2022-10-16T16:03:26;19.40;72.20
42965;DHT22;28604;51.204;22.552;2022-10-16T16:05:52;19.40;72.10
42965;DHT22;28604;51.204;22.552;2022-10-16T16:08:19;19.50;72.00
42965;DHT22;28604;51.204;22.552;2022-10-16T16:10:45;19.30;71.80
42965;DHT22;28604;51.204;22.552;2022-10-16T16:13:11;19.20;72.50
42965;DHT22;28604;51.204;22.552;2022-10-16T16:15:40;19.30;72.30
42965;DHT22;28604;51.204;22.552;2022-10-16T16:18:06;19.20;72.30
42965;DHT22;28604;51.204;22.552;2022-10-16T16:20:32;19.20;72.40
42965;DHT22;28604;51.204;22.552;2022-10-16T16:22:58;19.20;72.50
42965;DHT22;28604;51.204;22.552;2022-10-16T16:25:24;19.10;72.10
42965;DHT22;28604;51.204;22.552;2022-10-16T16:27:50;19.10;72.00
42965;DHT22;28604;51.204;22.552;2022-10-16T16:30:16;19.00;72.60
42965;DHT22;28604;51.204;22.552;2022-10-16T16:32:44;19.00;72.50
42965;DHT22;28604;51.204;22.552;2022-10-16T16:35:10;19.00;72.80
42965;DHT22;28604;51.204;22.552;2022-10-16T16:37:37;18.90;72.80
42965;DHT22;28604;51.204;22.552;2022-10-16T16:40:03;18.90;72.80
42965;DHT22;28604;51.204;22.552;2022-10-16T16:42:29;18.80;72.80
42965;DHT22;28604;51.204;22.552;2022-10-16T16:44:56;18.80;72.60
42965;DHT22;28604;51.204;22.552;2022-10-16T16:47:22;18.80;72.70
42965;DHT22;28604;51.204;22.552;2022-10-16T16:49:48;18.80;72.60
42965;DHT22;28604;51.204;22.552;2022-10-16T16:52:15;18.60;72.60
42965;DHT22;28604;51.204;22.552;2022-10-16T16:54:41;18.60;72.70
42965;DHT22;28604;51.204;22.552;2022-10-16T16:57:07;18.70;72.40
42965;DHT22;28604;51.204;22.552;2022-10-16T16:59:33;18.60;72.60
42965;DHT22;28604;51.204;22.552;2022-10-16T17:01:59;18.50;72.70
42965;DHT22;28604;51.204;22.552;2022-10-16T17:04:26;18.40;72.90
42965;DHT22;28604;51.204;22.552;2022-10-16T17:06:55;18.40;72.90
42965;DHT22;28604;51.204;22.552;2022-10-16T17:09:22;18.30;73.20
42965;DHT22;28604;51.204;22.552;2022-10-16T17:11:47;18.30;73.20
42965;DHT22;28604;51.204;22.552;2022-10-16T17:14:14;18.30;72.70
42965;DHT22;28604;51.204;22.552;2022-10-16T17:16:41;18.20;73.20
42965;DHT22;28604;51.204;22.552;2022-10-16T17:19:14;18.20;73.00
42965;DHT22;28604;51.204;22.552;2022-10-16T17:21:40;18.10;73.30
42965;DHT22;28604;51.204;22.552;2022-10-16T17:24:07;18.10;73.00
42965;DHT22;28604;51.204;22.552;2022-10-16T17:26:34;18.00;73.50
42965;DHT22;28604;51.204;22.552;2022-10-16T17:29:03;18.00;73.60
42965;DHT22;28604;51.204;22.552;2022-10-16T17:31:38;18.00;73.60